createdAt,value
2022-08-31T00:00:13.447Z,1018.98
2022-08-31T00:01:13.427Z,1018.99
2022-08-31T00:02:13.466Z,1019.01
2022-08-31T00:03:13.433Z,1019.02
2022-08-31T00:04:13.454Z,1019.09
2022-08-31T00:05:13.366Z,1019.07
2022-08-31T00:06:13.370Z,1019.07
2022-08-31T00:07:13.356Z,1019.08
2022-08-31T00:08:13.344Z,1019.04
2022-08-31T00:09:13.363Z,1019.00
2022-08-31T00:10:13.363Z,1019.03
2022-08-31T00:11:13.306Z,1019.05
2022-08-31T00:12:13.299Z,1019.07
2022-08-31T00:13:13.304Z,1019.08
2022-08-31T00:14:13.588Z,1019.08
2022-08-31T00:15:13.275Z,1019.07
2022-08-31T00:16:13.286Z,1019.07
2022-08-31T00:17:13.213Z,1019.11
2022-08-31T00:18:13.208Z,1019.14
2022-08-31T00:19:13.181Z,1019.12
2022-08-31T00:20:32.388Z,1019.11
2022-08-31T00:21:13.197Z,1019.15
2022-08-31T00:22:13.161Z,1019.16
2022-08-31T00:23:13.130Z,1019.20
2022-08-31T00:24:13.132Z,1019.19
2022-08-31T00:25:13.106Z,1019.18
2022-08-31T00:26:13.148Z,1019.15
2022-08-31T00:27:13.079Z,1019.20
2022-08-31T00:28:13.078Z,1019.17
2022-08-31T00:29:13.063Z,1019.18
2022-08-31T00:30:13.054Z,1019.24
2022-08-31T00:31:13.046Z,1019.21
2022-08-31T00:32:13.057Z,1019.18
2022-08-31T00:33:12.994Z,1019.21
2022-08-31T00:34:13.011Z,1019.19
2022-08-31T00:35:12.969Z,1019.18
2022-08-31T00:36:12.982Z,1019.16
2022-08-31T00:37:12.977Z,1019.20
2022-08-31T00:38:12.971Z,1019.19
2022-08-31T00:39:12.916Z,1019.22
2022-08-31T00:40:12.983Z,1019.23
2022-08-31T00:41:12.895Z,1019.25
2022-08-31T00:42:12.895Z,1019.28
2022-08-31T00:43:12.950Z,1019.30
2022-08-31T00:44:12.865Z,1019.33
2022-08-31T00:45:12.841Z,1019.35
2022-08-31T00:46:12.899Z,1019.33
2022-08-31T00:47:12.808Z,1019.43
2022-08-31T00:48:12.845Z,1019.42
2022-08-31T00:49:12.781Z,1019.49
2022-08-31T00:50:12.819Z,1019.46
2022-08-31T00:51:13.104Z,1019.52
2022-08-31T00:52:12.768Z,1019.48
2022-08-31T00:53:12.726Z,1019.46
2022-08-31T00:54:12.771Z,1019.51
2022-08-31T00:55:12.718Z,1019.43
2022-08-31T00:56:12.722Z,1019.46
2022-08-31T00:57:12.676Z,1019.42
2022-08-31T00:58:12.682Z,1019.42
2022-08-31T00:59:12.684Z,1019.39
2022-08-31T01:00:12.663Z,1019.42
2022-08-31T01:01:12.714Z,1019.40
2022-08-31T01:02:12.657Z,1019.40
2022-08-31T01:03:12.608Z,1019.36
2022-08-31T01:04:12.599Z,1019.34
2022-08-31T01:05:12.622Z,1019.34
2022-08-31T01:06:12.586Z,1019.36
2022-08-31T01:07:12.555Z,1019.33
2022-08-31T01:08:12.544Z,1019.35
2022-08-31T01:09:12.518Z,1019.36
2022-08-31T01:10:12.555Z,1019.36
2022-08-31T01:11:12.492Z,1019.35
2022-08-31T01:12:12.499Z,1019.37
2022-08-31T01:13:12.464Z,1019.36
2022-08-31T01:14:12.488Z,1019.41
2022-08-31T01:15:12.451Z,1019.44
2022-08-31T01:16:12.503Z,1019.40
2022-08-31T01:17:12.419Z,1019.44
2022-08-31T01:18:12.416Z,1019.44
2022-08-31T01:19:12.388Z,1019.45
2022-08-31T01:20:12.387Z,1019.43
2022-08-31T01:21:12.404Z,1019.42
2022-08-31T01:22:12.359Z,1019.43
2022-08-31T01:23:12.343Z,1019.40
2022-08-31T01:24:12.336Z,1019.42
2022-08-31T01:25:12.324Z,1019.46
2022-08-31T01:26:12.295Z,1019.47
2022-08-31T01:27:12.326Z,1019.45
2022-08-31T01:28:12.287Z,1019.45
2022-08-31T01:29:12.278Z,1019.45
2022-08-31T01:30:12.256Z,1019.52
2022-08-31T01:31:12.279Z,1019.54
2022-08-31T01:32:12.241Z,1019.54
2022-08-31T01:33:12.218Z,1019.58
2022-08-31T01:34:12.185Z,1019.55
2022-08-31T01:35:12.188Z,1019.57
2022-08-31T01:36:15.975Z,1019.58
2022-08-31T01:37:12.164Z,1019.59
2022-08-31T01:38:12.187Z,1019.62
2022-08-31T01:39:12.135Z,1019.59
2022-08-31T01:40:12.135Z,1019.62
2022-08-31T01:41:13.105Z,1019.64
2022-08-31T01:42:12.086Z,1019.60
2022-08-31T01:43:12.119Z,1019.57
2022-08-31T01:44:12.052Z,1019.56
2022-08-31T01:45:12.055Z,1019.56
2022-08-31T01:46:12.035Z,1019.53
2022-08-31T01:47:12.085Z,1019.54
2022-08-31T01:48:12.010Z,1019.51
2022-08-31T01:49:12.035Z,1019.55
2022-08-31T01:50:11.973Z,1019.49
2022-08-31T01:51:12.444Z,1019.49
2022-08-31T01:52:11.951Z,1019.49
2022-08-31T01:53:11.999Z,1019.50
2022-08-31T01:54:11.959Z,1019.51
2022-08-31T01:55:11.926Z,1019.49
2022-08-31T01:56:11.901Z,1019.53
2022-08-31T01:57:11.900Z,1019.50
2022-08-31T01:58:11.868Z,1019.54
2022-08-31T01:59:11.875Z,1019.49
2022-08-31T02:00:11.881Z,1019.51
2022-08-31T02:01:33.977Z,1019.51
2022-08-31T02:02:11.860Z,1019.53
2022-08-31T02:03:11.876Z,1019.51
2022-08-31T02:04:11.792Z,1019.53
2022-08-31T02:05:11.827Z,1019.53
2022-08-31T02:06:11.778Z,1019.51
2022-08-31T02:07:11.767Z,1019.53
2022-08-31T02:08:11.741Z,1019.53
2022-08-31T02:09:11.742Z,1019.54
2022-08-31T02:10:11.722Z,1019.54
2022-08-31T02:11:11.749Z,1019.50
2022-08-31T02:12:12.719Z,1019.47
2022-08-31T02:13:11.783Z,1019.47
2022-08-31T02:14:11.663Z,1019.48
2022-08-31T02:15:11.668Z,1019.48
2022-08-31T02:16:11.727Z,1019.47
2022-08-31T02:17:11.635Z,1019.47
2022-08-31T02:18:12.075Z,1019.49
2022-08-31T02:19:11.607Z,1019.43
2022-08-31T02:20:11.586Z,1019.46
2022-08-31T02:21:11.579Z,1019.47
2022-08-31T02:22:11.589Z,1019.45
2022-08-31T02:23:11.669Z,1019.48
2022-08-31T02:24:11.531Z,1019.47
2022-08-31T02:25:11.524Z,1019.46
2022-08-31T02:26:11.499Z,1019.47
2022-08-31T02:27:11.530Z,1019.44
2022-08-31T02:28:11.468Z,1019.44
2022-08-31T02:29:11.481Z,1019.45
2022-08-31T02:30:11.454Z,1019.45
2022-08-31T02:31:11.545Z,1019.46
2022-08-31T02:32:20.168Z,1019.49
2022-08-31T02:33:11.533Z,1019.49
2022-08-31T02:34:11.429Z,1019.50
2022-08-31T02:35:11.385Z,1019.46
2022-08-31T02:36:11.360Z,1019.48
2022-08-31T02:37:11.361Z,1019.49
2022-08-31T02:38:11.375Z,1019.50
2022-08-31T02:39:11.354Z,1019.49
2022-08-31T02:40:12.253Z,1019.51
2022-08-31T02:41:11.323Z,1019.49
2022-08-31T02:42:11.288Z,1019.53
2022-08-31T02:43:11.313Z,1019.54
2022-08-31T02:44:11.291Z,1019.55
2022-08-31T02:45:11.264Z,1019.54
2022-08-31T02:46:11.314Z,1019.60
2022-08-31T02:47:11.235Z,1019.58
2022-08-31T02:48:11.209Z,1019.62
2022-08-31T02:49:11.235Z,1019.65
2022-08-31T02:50:11.178Z,1019.67
2022-08-31T02:51:11.186Z,1019.62
2022-08-31T02:52:11.157Z,1019.66
2022-08-31T02:53:11.210Z,1019.69
2022-08-31T02:54:11.179Z,1019.63
2022-08-31T02:55:11.163Z,1019.64
2022-08-31T02:56:11.100Z,1019.62
2022-08-31T02:57:11.116Z,1019.61
2022-08-31T02:58:11.075Z,1019.64
2022-08-31T02:59:11.078Z,1019.59
2022-08-31T03:00:11.077Z,1019.59
2022-08-31T03:01:11.164Z,1019.62
2022-08-31T03:02:11.150Z,1019.59
2022-08-31T03:03:11.147Z,1019.55
2022-08-31T03:04:11.005Z,1019.59
2022-08-31T03:05:10.995Z,1019.59
2022-08-31T03:06:11.004Z,1019.59
2022-08-31T03:07:10.972Z,1019.55
2022-08-31T03:08:10.941Z,1019.61
2022-08-31T03:09:10.941Z,1019.60
2022-08-31T03:10:10.923Z,1019.59
2022-08-31T03:11:10.954Z,1019.57
2022-08-31T03:12:10.882Z,1019.57
2022-08-31T03:13:10.934Z,1019.59
2022-08-31T03:14:10.866Z,1019.53
2022-08-31T03:15:10.864Z,1019.49
2022-08-31T03:16:10.929Z,1019.49
2022-08-31T03:17:10.870Z,1019.46
2022-08-31T03:18:10.808Z,1019.51
2022-08-31T03:19:10.809Z,1019.45
2022-08-31T03:20:10.798Z,1019.50
2022-08-31T03:21:10.784Z,1019.53
2022-08-31T03:22:10.802Z,1019.50
2022-08-31T03:23:10.811Z,1019.47
2022-08-31T03:24:10.738Z,1019.47
2022-08-31T03:25:10.730Z,1019.47
2022-08-31T03:26:10.706Z,1019.51
2022-08-31T03:27:10.707Z,1019.50
2022-08-31T03:28:10.705Z,1019.56
2022-08-31T03:29:10.685Z,1019.53
2022-08-31T03:30:10.650Z,1019.55
2022-08-31T03:31:10.688Z,1019.55
2022-08-31T03:32:10.623Z,1019.51
2022-08-31T03:33:10.674Z,1019.57
2022-08-31T03:34:10.592Z,1019.54
2022-08-31T03:35:10.599Z,1019.55
2022-08-31T03:36:10.585Z,1019.53
2022-08-31T03:37:10.568Z,1019.55
2022-08-31T03:38:10.545Z,1019.53
2022-08-31T03:39:10.580Z,1019.56
2022-08-31T03:40:10.557Z,1019.59
2022-08-31T03:41:10.521Z,1019.56
2022-08-31T03:42:10.499Z,1019.57
2022-08-31T03:43:10.489Z,1019.61
2022-08-31T03:44:10.498Z,1019.64
2022-08-31T03:45:10.470Z,1019.60
2022-08-31T03:46:12.083Z,1019.64
2022-08-31T03:47:10.437Z,1019.63
2022-08-31T03:48:12.838Z,1019.69
2022-08-31T03:49:10.411Z,1019.70
2022-08-31T03:50:10.415Z,1019.69
2022-08-31T03:51:10.385Z,1019.68
2022-08-31T03:52:10.357Z,1019.66
2022-08-31T03:53:10.364Z,1019.65
2022-08-31T03:54:10.324Z,1019.73
2022-08-31T03:55:10.369Z,1019.69
2022-08-31T03:56:10.303Z,1019.69
2022-08-31T03:57:10.301Z,1019.69
2022-08-31T03:58:10.277Z,1019.72
2022-08-31T03:59:10.278Z,1019.72
2022-08-31T04:00:10.249Z,1019.76
2022-08-31T04:01:10.308Z,1019.73
2022-08-31T04:02:10.308Z,1019.70
2022-08-31T04:03:10.268Z,1019.70
2022-08-31T04:04:10.201Z,1019.69
2022-08-31T04:05:10.198Z,1019.69
2022-08-31T04:06:10.198Z,1019.69
2022-08-31T04:07:10.172Z,1019.69
2022-08-31T04:08:10.142Z,1019.71
2022-08-31T04:09:10.146Z,1019.69
2022-08-31T04:10:10.124Z,1019.66
2022-08-31T04:11:10.120Z,1019.68
2022-08-31T04:12:10.115Z,1019.76
2022-08-31T04:13:10.088Z,1019.79
2022-08-31T04:14:10.060Z,1019.80
2022-08-31T04:15:10.061Z,1019.77
2022-08-31T04:16:10.086Z,1019.78
2022-08-31T04:17:10.066Z,1019.80
2022-08-31T04:18:10.027Z,1019.80
2022-08-31T04:19:10.010Z,1019.85
2022-08-31T04:20:09.990Z,1019.84
2022-08-31T04:21:09.980Z,1019.87
2022-08-31T04:22:09.974Z,1019.84
2022-08-31T04:23:09.990Z,1019.83
2022-08-31T04:24:09.931Z,1019.86
2022-08-31T04:25:09.875Z,1019.84
2022-08-31T04:26:09.854Z,1019.84
2022-08-31T04:27:09.849Z,1019.82
2022-08-31T04:28:09.853Z,1019.80
2022-08-31T04:29:13.443Z,1019.80
2022-08-31T04:30:09.798Z,1019.83
2022-08-31T04:31:09.838Z,1019.80
2022-08-31T04:32:09.774Z,1019.77
2022-08-31T04:33:09.791Z,1019.75
2022-08-31T04:34:09.767Z,1019.79
2022-08-31T04:35:09.755Z,1019.79
2022-08-31T04:36:09.719Z,1019.80
2022-08-31T04:37:09.718Z,1019.82
2022-08-31T04:38:10.077Z,1019.81
2022-08-31T04:39:09.743Z,1019.83
2022-08-31T04:40:09.704Z,1019.82
2022-08-31T04:41:09.663Z,1019.86
2022-08-31T04:42:09.640Z,1019.86
2022-08-31T04:43:09.632Z,1019.90
2022-08-31T04:44:09.630Z,1019.88
2022-08-31T04:45:09.636Z,1019.88
2022-08-31T04:46:09.657Z,1019.90
2022-08-31T04:47:09.589Z,1019.91
2022-08-31T04:48:09.563Z,1019.91
2022-08-31T04:49:09.585Z,1019.88
2022-08-31T04:50:09.564Z,1019.88
2022-08-31T04:51:09.548Z,1019.88
2022-08-31T04:52:09.498Z,1019.87
2022-08-31T04:53:09.503Z,1019.84
2022-08-31T04:54:09.485Z,1019.85
2022-08-31T04:55:09.483Z,1019.87
2022-08-31T04:56:09.478Z,1019.89
2022-08-31T04:57:09.450Z,1019.88
2022-08-31T04:58:09.422Z,1019.88
2022-08-31T04:59:09.443Z,1019.90
2022-08-31T05:00:09.407Z,1019.94
2022-08-31T05:01:09.575Z,1019.89
2022-08-31T05:02:09.498Z,1019.94
2022-08-31T05:03:09.385Z,1019.96
2022-08-31T05:04:09.359Z,1019.95
2022-08-31T05:05:09.348Z,1019.99
2022-08-31T05:06:09.316Z,1019.97
2022-08-31T05:07:09.382Z,1019.98
2022-08-31T05:08:09.290Z,1019.98
2022-08-31T05:09:09.291Z,1020.05
2022-08-31T05:10:09.283Z,1020.04
2022-08-31T05:11:09.272Z,1020.08
2022-08-31T05:12:09.281Z,1020.09
2022-08-31T05:13:09.242Z,1020.13
2022-08-31T05:14:09.206Z,1020.15
2022-08-31T05:15:09.218Z,1020.20
2022-08-31T05:16:09.277Z,1020.21
2022-08-31T05:17:13.733Z,1020.24
2022-08-31T05:18:09.201Z,1020.25
2022-08-31T05:19:09.154Z,1020.22
2022-08-31T05:20:09.131Z,1020.24
2022-08-31T05:21:09.134Z,1020.23
2022-08-31T05:22:09.116Z,1020.25
2022-08-31T05:23:09.151Z,1020.28
2022-08-31T05:24:09.081Z,1020.27
2022-08-31T05:25:09.091Z,1020.31
2022-08-31T05:26:09.059Z,1020.29
2022-08-31T05:27:09.052Z,1020.29
2022-08-31T05:28:09.027Z,1020.29
2022-08-31T05:29:09.089Z,1020.32
2022-08-31T05:30:09.019Z,1020.34
2022-08-31T05:31:09.130Z,1020.32
2022-08-31T05:32:08.965Z,1020.31
2022-08-31T05:33:08.980Z,1020.31
2022-08-31T05:34:08.973Z,1020.33
2022-08-31T05:35:08.948Z,1020.32
2022-08-31T05:36:08.921Z,1020.30
2022-08-31T05:37:08.948Z,1020.36
2022-08-31T05:38:08.897Z,1020.33
2022-08-31T05:39:08.893Z,1020.32
2022-08-31T05:40:08.983Z,1020.31
2022-08-31T05:41:08.873Z,1020.29
2022-08-31T05:42:08.857Z,1020.35
2022-08-31T05:43:08.823Z,1020.33
2022-08-31T05:44:08.828Z,1020.35
2022-08-31T05:45:08.826Z,1020.38
2022-08-31T05:46:10.502Z,1020.36
2022-08-31T05:47:08.811Z,1020.33
2022-08-31T05:48:08.772Z,1020.39
2022-08-31T05:49:08.743Z,1020.33
2022-08-31T05:50:08.745Z,1020.34
2022-08-31T05:51:08.748Z,1020.35
2022-08-31T05:52:08.714Z,1020.35
2022-08-31T05:53:08.700Z,1020.35
2022-08-31T05:54:08.683Z,1020.38
2022-08-31T05:55:08.658Z,1020.39
2022-08-31T05:56:08.705Z,1020.40
2022-08-31T05:57:08.640Z,1020.44
2022-08-31T05:58:08.635Z,1020.42
2022-08-31T05:59:08.616Z,1020.43
2022-08-31T06:00:08.621Z,1020.43
2022-08-31T06:01:08.586Z,1020.41
2022-08-31T06:02:08.666Z,1020.39
2022-08-31T06:03:08.594Z,1020.39
2022-08-31T06:04:08.578Z,1020.40
2022-08-31T06:05:08.611Z,1020.39
2022-08-31T06:06:08.523Z,1020.39
2022-08-31T06:07:08.539Z,1020.41
2022-08-31T06:08:13.060Z,1020.44
2022-08-31T06:09:08.478Z,1020.38
2022-08-31T06:10:08.474Z,1020.39
2022-08-31T06:11:08.445Z,1020.46
2022-08-31T06:12:08.465Z,1020.45
2022-08-31T06:13:08.445Z,1020.47
2022-08-31T06:14:08.422Z,1020.44
2022-08-31T06:15:08.397Z,1020.49
2022-08-31T06:16:08.476Z,1020.51
2022-08-31T06:17:08.369Z,1020.55
2022-08-31T06:18:08.406Z,1020.57
2022-08-31T06:19:08.347Z,1020.59
2022-08-31T06:20:08.346Z,1020.61
2022-08-31T06:21:08.330Z,1020.67
2022-08-31T06:22:08.346Z,1020.63
2022-08-31T06:23:08.290Z,1020.60
2022-08-31T06:24:08.325Z,1020.59
2022-08-31T06:25:08.262Z,1020.59
2022-08-31T06:26:08.297Z,1020.53
2022-08-31T06:27:08.250Z,1020.55
2022-08-31T06:28:08.265Z,1020.52
2022-08-31T06:29:08.248Z,1020.54
2022-08-31T06:30:08.208Z,1020.54
2022-08-31T06:31:08.245Z,1020.52
2022-08-31T06:32:08.404Z,1020.50
2022-08-31T06:33:08.164Z,1020.50
2022-08-31T06:34:08.153Z,1020.49
2022-08-31T06:35:08.153Z,1020.49
2022-08-31T06:36:08.133Z,1020.53
2022-08-31T06:37:08.105Z,1020.48
2022-08-31T06:38:08.114Z,1020.49
2022-08-31T06:39:08.078Z,1020.47
2022-08-31T06:40:08.156Z,1020.49
2022-08-31T06:41:08.048Z,1020.50
2022-08-31T06:42:08.048Z,1020.48
2022-08-31T06:43:08.127Z,1020.50
2022-08-31T06:44:08.022Z,1020.49
2022-08-31T06:45:07.991Z,1020.50
2022-08-31T06:46:08.132Z,1020.54
2022-08-31T06:47:07.965Z,1020.58
2022-08-31T06:48:07.980Z,1020.58
2022-08-31T06:49:08.412Z,1020.62
2022-08-31T06:50:07.945Z,1020.63
2022-08-31T06:51:07.955Z,1020.64
2022-08-31T06:52:07.923Z,1020.65
2022-08-31T06:53:07.895Z,1020.71
2022-08-31T06:54:27.850Z,1020.72
2022-08-31T06:55:07.872Z,1020.62
2022-08-31T06:56:16.425Z,1020.64
2022-08-31T06:57:07.881Z,1020.63
2022-08-31T06:58:07.864Z,1020.69
2022-08-31T06:59:07.817Z,1020.68
2022-08-31T07:00:07.811Z,1020.71
2022-08-31T07:01:07.893Z,1020.72
2022-08-31T07:02:07.860Z,1020.69
2022-08-31T07:03:07.823Z,1020.69
2022-08-31T07:04:07.757Z,1020.73
2022-08-31T07:05:08.438Z,1020.72
2022-08-31T07:06:07.783Z,1020.71
2022-08-31T07:07:07.704Z,1020.75
2022-08-31T07:09:04.243Z,1020.82
2022-08-31T07:10:05.153Z,1020.80
2022-08-31T07:11:05.131Z,1020.83
2022-08-31T07:12:05.134Z,1020.76
2022-08-31T07:13:05.102Z,1020.80
2022-08-31T07:14:05.138Z,1020.81
2022-08-31T07:15:05.084Z,1020.83
2022-08-31T07:16:05.206Z,1020.84
2022-08-31T07:17:05.052Z,1020.87
2022-08-31T07:18:08.373Z,1020.83
2022-08-31T07:19:05.051Z,1020.85
2022-08-31T07:20:05.053Z,1020.87
2022-08-31T07:21:05.011Z,1020.91
2022-08-31T07:22:05.002Z,1020.88
2022-08-31T07:23:05.007Z,1020.88
2022-08-31T07:24:04.979Z,1020.91
2022-08-31T07:25:04.945Z,1020.93
2022-08-31T07:26:04.974Z,1020.90
2022-08-31T07:27:04.911Z,1020.91
2022-08-31T07:28:04.916Z,1020.94
2022-08-31T07:29:04.899Z,1020.90
2022-08-31T07:30:04.903Z,1020.92
2022-08-31T07:31:04.924Z,1020.95
2022-08-31T07:32:04.912Z,1020.96
2022-08-31T07:33:04.843Z,1020.98
2022-08-31T07:34:04.890Z,1020.95
2022-08-31T07:35:04.811Z,1021.01
2022-08-31T07:36:04.821Z,1021.02
2022-08-31T07:37:04.785Z,1021.01
2022-08-31T07:38:04.816Z,1021.01
2022-08-31T07:39:04.763Z,1021.00
2022-08-31T07:40:07.622Z,1021.01
2022-08-31T07:41:04.847Z,1021.06
2022-08-31T07:42:04.736Z,1021.07
2022-08-31T07:43:04.743Z,1021.07
2022-08-31T07:44:04.739Z,1021.10
2022-08-31T07:45:04.695Z,1021.06
2022-08-31T07:46:04.752Z,1021.07
2022-08-31T07:47:04.661Z,1021.06
2022-08-31T07:48:04.653Z,1021.08
2022-08-31T07:49:04.625Z,1021.04
2022-08-31T07:50:04.668Z,1021.09
2022-08-31T07:51:04.604Z,1021.09
2022-08-31T07:52:04.607Z,1021.12
2022-08-31T07:53:04.578Z,1021.11
2022-08-31T07:54:04.607Z,1021.09
2022-08-31T07:55:04.583Z,1021.10
2022-08-31T07:56:04.586Z,1021.12
2022-08-31T07:57:04.548Z,1021.12
2022-08-31T07:58:04.640Z,1021.08
2022-08-31T07:59:04.542Z,1021.06
2022-08-31T08:00:04.501Z,1021.06
2022-08-31T08:01:04.518Z,1021.07
2022-08-31T08:02:04.611Z,1021.04
2022-08-31T08:03:04.495Z,1021.05
2022-08-31T08:04:05.121Z,1021.02
2022-08-31T08:05:04.442Z,1021.03
2022-08-31T08:06:04.424Z,1021.01
2022-08-31T08:07:04.440Z,1021.03
2022-08-31T08:08:04.400Z,1021.07
2022-08-31T08:09:21.990Z,1021.01
2022-08-31T08:10:04.416Z,1021.00
2022-08-31T08:11:04.353Z,1021.05
2022-08-31T08:12:04.345Z,1021.01
2022-08-31T08:13:05.253Z,1021.04
2022-08-31T08:14:08.483Z,1021.06
2022-08-31T08:15:04.296Z,1021.05
2022-08-31T08:16:04.371Z,1021.05
2022-08-31T08:17:04.285Z,1021.05
2022-08-31T08:18:04.314Z,1021.02
2022-08-31T08:19:04.252Z,1021.04
2022-08-31T08:20:04.247Z,1021.04
2022-08-31T08:21:04.218Z,1021.01
2022-08-31T08:22:04.217Z,1021.05
2022-08-31T08:23:04.193Z,1021.01
2022-08-31T08:24:04.214Z,1021.02
2022-08-31T08:25:04.163Z,1021.04
2022-08-31T08:26:04.166Z,1021.04
2022-08-31T08:27:04.140Z,1021.00
2022-08-31T08:28:22.637Z,1020.95
2022-08-31T08:29:04.188Z,1021.01
2022-08-31T08:30:04.117Z,1020.95
2022-08-31T08:31:04.200Z,1020.98
2022-08-31T08:32:04.098Z,1021.02
2022-08-31T08:33:04.095Z,1021.01
2022-08-31T08:34:04.057Z,1021.06
2022-08-31T08:35:04.066Z,1021.07
2022-08-31T08:36:04.044Z,1021.08
2022-08-31T08:37:04.016Z,1021.07
2022-08-31T08:38:07.745Z,1021.14
2022-08-31T08:39:03.988Z,1021.13
2022-08-31T08:40:04.073Z,1021.17
2022-08-31T08:41:03.955Z,1021.17
2022-08-31T08:42:03.982Z,1021.19
2022-08-31T08:43:03.932Z,1021.19
2022-08-31T08:44:03.929Z,1021.20
2022-08-31T08:45:03.924Z,1021.22
2022-08-31T08:46:25.206Z,1021.19
2022-08-31T08:47:03.885Z,1021.22
2022-08-31T08:48:03.897Z,1021.27
2022-08-31T08:49:03.864Z,1021.27
2022-08-31T08:50:03.857Z,1021.28
2022-08-31T08:51:03.886Z,1021.33
2022-08-31T08:52:03.832Z,1021.29
2022-08-31T08:53:03.803Z,1021.31
2022-08-31T08:54:03.806Z,1021.32
2022-08-31T08:55:03.781Z,1021.32
2022-08-31T08:56:23.123Z,1021.35
2022-08-31T08:57:03.785Z,1021.33
2022-08-31T08:58:03.751Z,1021.35
2022-08-31T08:59:06.307Z,1021.41
2022-08-31T09:00:03.751Z,1021.41
2022-08-31T09:01:03.744Z,1021.43
2022-08-31T09:02:03.834Z,1021.39
2022-08-31T09:03:10.988Z,1021.41
2022-08-31T09:04:03.872Z,1021.40
2022-08-31T09:05:03.648Z,1021.47
2022-08-31T09:06:03.663Z,1021.43
2022-08-31T09:07:03.636Z,1021.48
2022-08-31T09:08:03.654Z,1021.47
2022-08-31T09:09:03.601Z,1021.54
2022-08-31T09:10:03.601Z,1021.50
2022-08-31T09:11:03.659Z,1021.49
2022-08-31T09:12:03.586Z,1021.49
2022-08-31T09:13:03.578Z,1021.48
2022-08-31T09:14:03.544Z,1021.45
2022-08-31T09:15:03.638Z,1021.48
2022-08-31T09:16:03.620Z,1021.47
2022-08-31T09:17:03.495Z,1021.49
2022-08-31T09:18:03.515Z,1021.47
2022-08-31T09:19:03.499Z,1021.49
2022-08-31T09:20:03.477Z,1021.46
2022-08-31T09:21:03.471Z,1021.47
2022-08-31T09:22:03.468Z,1021.53
2022-08-31T09:23:03.418Z,1021.54
2022-08-31T09:24:03.487Z,1021.55
2022-08-31T09:25:03.398Z,1021.57
2022-08-31T09:26:08.021Z,1021.51
2022-08-31T09:27:03.376Z,1021.56
2022-08-31T09:28:03.367Z,1021.56
2022-08-31T09:29:03.347Z,1021.56
2022-08-31T09:30:03.373Z,1021.59
2022-08-31T09:31:03.442Z,1021.60
2022-08-31T09:32:06.296Z,1021.65
2022-08-31T09:33:03.299Z,1021.58
2022-08-31T09:34:03.289Z,1021.59
2022-08-31T09:35:03.317Z,1021.62
2022-08-31T09:36:03.271Z,1021.61
2022-08-31T09:37:03.243Z,1021.61
2022-08-31T09:38:03.249Z,1021.58
2022-08-31T09:39:03.256Z,1021.63
2022-08-31T09:40:07.197Z,1021.59
2022-08-31T09:41:03.274Z,1021.64
2022-08-31T09:42:03.204Z,1021.62
2022-08-31T09:43:03.174Z,1021.68
2022-08-31T09:44:03.169Z,1021.62
2022-08-31T09:45:03.137Z,1021.57
2022-08-31T09:46:03.257Z,1021.56
2022-08-31T09:47:03.134Z,1021.55
2022-08-31T09:48:03.143Z,1021.55
2022-08-31T09:49:03.123Z,1021.57
2022-08-31T09:50:03.123Z,1021.55
2022-08-31T09:51:03.093Z,1021.56
2022-08-31T09:52:03.163Z,1021.54
2022-08-31T09:53:03.072Z,1021.57
2022-08-31T09:54:03.054Z,1021.54
2022-08-31T09:55:03.029Z,1021.55
2022-08-31T09:56:03.091Z,1021.55
2022-08-31T09:57:03.046Z,1021.56
2022-08-31T09:58:03.017Z,1021.59
2022-08-31T09:59:02.991Z,1021.55
2022-08-31T10:00:02.987Z,1021.57
2022-08-31T10:01:02.986Z,1021.56
2022-08-31T10:02:06.087Z,1021.58
2022-08-31T10:03:06.559Z,1021.58
2022-08-31T10:04:02.935Z,1021.55
2022-08-31T10:05:02.942Z,1021.53
2022-08-31T10:06:02.886Z,1021.57
2022-08-31T10:07:02.864Z,1021.59
2022-08-31T10:08:02.895Z,1021.55
2022-08-31T10:09:02.853Z,1021.61
2022-08-31T10:10:02.856Z,1021.60
2022-08-31T10:11:02.825Z,1021.61
2022-08-31T10:12:02.828Z,1021.58
2022-08-31T10:13:02.785Z,1021.55
2022-08-31T10:14:02.836Z,1021.55
2022-08-31T10:15:02.811Z,1021.54
2022-08-31T10:16:02.782Z,1021.49
2022-08-31T10:17:02.772Z,1021.45
2022-08-31T10:18:02.768Z,1021.53
2022-08-31T10:19:02.735Z,1021.53
2022-08-31T10:20:02.719Z,1021.50
2022-08-31T10:21:02.725Z,1021.53
2022-08-31T10:22:02.682Z,1021.51
2022-08-31T10:23:02.698Z,1021.52
2022-08-31T10:24:02.691Z,1021.50
2022-08-31T10:25:02.677Z,1021.51
2022-08-31T10:26:02.658Z,1021.51
2022-08-31T10:27:02.614Z,1021.48
2022-08-31T10:28:02.621Z,1021.50
2022-08-31T10:29:02.610Z,1021.51
2022-08-31T10:30:02.635Z,1021.49
2022-08-31T10:31:02.595Z,1021.52
2022-08-31T10:32:02.558Z,1021.52
2022-08-31T10:33:02.529Z,1021.54
2022-08-31T10:34:02.540Z,1021.56
2022-08-31T10:35:02.521Z,1021.61
2022-08-31T10:36:02.563Z,1021.60
2022-08-31T10:37:02.487Z,1021.57
2022-08-31T10:38:02.493Z,1021.56
2022-08-31T10:39:02.460Z,1021.54
2022-08-31T10:40:02.547Z,1021.58
2022-08-31T10:41:02.503Z,1021.56
2022-08-31T10:42:02.437Z,1021.55
2022-08-31T10:43:02.401Z,1021.57
2022-08-31T10:44:02.408Z,1021.61
2022-08-31T10:45:02.377Z,1021.55
2022-08-31T10:46:02.453Z,1021.56
2022-08-31T10:47:02.377Z,1021.57
2022-08-31T10:48:02.360Z,1021.51
2022-08-31T10:49:02.348Z,1021.57
2022-08-31T10:50:02.313Z,1021.53
2022-08-31T10:51:02.328Z,1021.52
2022-08-31T10:52:02.346Z,1021.49
2022-08-31T10:53:02.873Z,1021.51
2022-08-31T10:54:02.262Z,1021.51
2022-08-31T10:55:02.282Z,1021.48
2022-08-31T10:56:02.248Z,1021.45
2022-08-31T10:57:02.251Z,1021.44
2022-08-31T10:58:02.239Z,1021.44
2022-08-31T10:59:02.235Z,1021.50
2022-08-31T11:00:02.181Z,1021.46
2022-08-31T11:01:02.262Z,1021.49
2022-08-31T11:02:02.199Z,1021.47
2022-08-31T11:03:02.198Z,1021.49
2022-08-31T11:04:02.198Z,1021.50
2022-08-31T11:05:02.246Z,1021.51
2022-08-31T11:06:02.128Z,1021.53
2022-08-31T11:07:02.118Z,1021.46
2022-08-31T11:08:02.084Z,1021.49
2022-08-31T11:09:02.144Z,1021.46
2022-08-31T11:10:02.070Z,1021.45
2022-08-31T11:11:02.074Z,1021.42
2022-08-31T11:12:02.160Z,1021.44
2022-08-31T11:13:02.073Z,1021.41
2022-08-31T11:14:02.057Z,1021.41
2022-08-31T11:15:02.004Z,1021.39
2022-08-31T11:16:02.056Z,1021.41
2022-08-31T11:17:01.981Z,1021.43
2022-08-31T11:18:01.989Z,1021.41
2022-08-31T11:19:04.115Z,1021.42
2022-08-31T11:20:01.997Z,1021.43
2022-08-31T11:21:01.944Z,1021.39
2022-08-31T11:22:01.904Z,1021.40
2022-08-31T11:23:01.906Z,1021.39
2022-08-31T11:24:01.880Z,1021.37
2022-08-31T11:25:01.935Z,1021.39
2022-08-31T11:26:01.849Z,1021.40
2022-08-31T11:27:01.860Z,1021.36
2022-08-31T11:28:01.836Z,1021.34
2022-08-31T11:29:01.851Z,1021.35
2022-08-31T11:30:01.901Z,1021.33
2022-08-31T11:31:01.872Z,1021.32
2022-08-31T11:32:01.813Z,1021.28
2022-08-31T11:33:01.796Z,1021.28
2022-08-31T11:34:17.668Z,1021.30
2022-08-31T11:35:01.759Z,1021.29
2022-08-31T11:36:06.399Z,1021.29
2022-08-31T11:37:01.729Z,1021.29
2022-08-31T11:38:01.688Z,1021.26
2022-08-31T11:39:01.698Z,1021.29
2022-08-31T11:40:01.736Z,1021.27
2022-08-31T11:41:01.722Z,1021.23
2022-08-31T11:42:01.684Z,1021.21
2022-08-31T11:43:01.682Z,1021.26
2022-08-31T11:44:01.638Z,1021.23
2022-08-31T11:45:01.630Z,1021.16
2022-08-31T11:46:01.659Z,1021.20
2022-08-31T11:47:01.646Z,1021.16
2022-08-31T11:48:01.607Z,1021.09
2022-08-31T11:49:01.599Z,1021.07
2022-08-31T11:50:01.576Z,1021.06
2022-08-31T11:51:01.554Z,1021.06
2022-08-31T11:52:01.586Z,1021.01
2022-08-31T11:53:01.536Z,1021.04
2022-08-31T11:54:01.488Z,1021.05
2022-08-31T11:55:01.500Z,1021.04
2022-08-31T11:56:01.482Z,1021.00
2022-08-31T11:57:01.478Z,1020.99
2022-08-31T11:58:01.549Z,1020.95
2022-08-31T11:59:01.468Z,1020.94
2022-08-31T12:00:01.435Z,1020.91
2022-08-31T12:01:01.418Z,1020.88
2022-08-31T12:02:01.462Z,1020.88
2022-08-31T12:03:01.442Z,1020.87
2022-08-31T12:04:01.412Z,1020.81
2022-08-31T12:05:01.479Z,1020.82
2022-08-31T12:06:01.345Z,1020.80